Date,TemperatureHighF,TemperatureAvgF,TemperatureLowF,DewpointHighF,DewpointAvgF,DewpointLowF,HumidityHigh,HumidityAvg,HumidityLow,PressureMaxIn,PressureMinIn,WindSpeedMaxMPH,WindSpeedAvgMPH,GustSpeedMaxMPH,PrecipitationSumIn
2013-2-1,54,48,42,46,42,37,95,82,62,30.36,30.24,10,3,0,0.00
2013-2-2,54,48,38,40,37,35,92,67,54,30.29,30.23,13,7,0,0.00
2013-2-3,46,41,34,43,38,32,96,92,86,30.33,30.22,2,0,0,0.00
2013-2-4,53,44,40,43,40,38,94,86,67,30.23,29.93,2,0,0,0.00
2013-2-5,52,45,42,46,41,39,93,88,68,30.03,29.91,8,2,0,0.00
2013-2-6,51,46,41,42,40,38,91,81,64,30.09,29.84,10,2,0,0.00
2013-2-7,51,42,35,41,36,32,92,82,60,30.12,29.89,10,1,0,0.00
2013-2-8,41,35,30,34,31,28,94,86,76,30.28,30.13,2,1,0,0.00
2013-2-9,43,38,31,39,35,28,94,90,84,30.29,30.25,3,0,0,0.00
2013-2-10,46,42,40,39,38,36,92,84,72,30.34,30.29,4,1,0,0.00
2013-2-11,44,42,40,41,38,36,93,88,76,30.38,30.30,5,1,0,0.00
2013-2-12,55,48,43,47,44,41,95,87,69,30.46,30.37,8,3,0,0.00
2013-2-13,51,48,45,45,43,41,90,84,77,30.50,30.40,8,3,0,0.00
2013-2-14,53,44,39,43,40,36,95,86,65,30.55,30.50,3,0,0,0.00
2013-2-15,57,46,35,42,39,33,95,77,57,30.50,30.17,9,3,0,0.00
2013-2-16,51,42,36,46,40,34,96,91,76,30.27,30.20,6,1,0,0.00
2013-2-17,43,40,35,40,36,32,96,88,69,30.29,30.10,2,0,0,0.00
2013-2-18,48,39,33,37,34,31,93,80,56,30.10,29.74,5,1,0,0.00
2013-2-19,57,43,36,39,35,32,89,74,51,29.98,29.68,7,2,0,0.00
2013-2-20,48,40,31,40,36,29,93,85,65,30.08,29.98,7,2,0,0.00
2013-2-21,44,42,40,39,38,36,91,84,75,30.17,30.07,8,4,0,0.00
2013-2-22,45,44,39,42,39,34,89,84,75,30.16,29.86,11,4,0,0.00
2013-2-23,46,40,37,40,36,34,88,84,68,30.43,30.04,7,3,0,0.00
2013-2-24,52,41,35,38,35,33,93,79,50,30.43,30.06,5,1,0,0.00
2013-2-25,48,42,39,41,37,34,89,82,64,30.36,30.00,12,5,0,0.00
2013-2-26,48,42,37,38,36,34,92,80,60,30.38,30.24,4,1,0,0.00
2013-2-27,52,46,41,43,40,36,90,80,63,30.31,30.22,6,1,0,0.00
2013-2-28,56,50,45,52,47,43,96,90,81,30.42,30.20,8,3,0,0.00